sensor_id;sensor_type;location;lat;lon;timestamp;pressure;altitude;pressure_sealevel;temperature;humidity
54588;BME280;40484;50.198;19.576;2023-06-04T12:30:39;102148.80;;;27.53;21.73
54588;BME280;40484;50.198;19.576;2023-06-04T12:35:41;102154.03;;;27.55;22.97
54588;BME280;40484;50.198;19.576;2023-06-04T12:40:42;102154.21;;;27.78;23.41
54588;BME280;40484;50.198;19.576;2023-06-04T12:45:44;102151.54;;;27.28;20.76
54588;BME280;40484;50.198;19.576;2023-06-04T12:50:46;102160.51;;;27.28;21.61
54588;BME280;40484;50.198;19.576;2023-06-04T12:55:47;102159.67;;;27.63;22.81
54588;BME280;40484;50.198;19.576;2023-06-04T13:00:49;102159.50;;;28.04;22.46
54588;BME280;40484;50.198;19.576;2023-06-04T13:05:51;102156.31;;;28.08;22.21
54588;BME280;40484;50.198;19.576;2023-06-04T13:10:54;102155.77;;;28.42;22.69
54588;BME280;40484;50.198;19.576;2023-06-04T13:15:56;102153.38;;;28.51;20.38
54588;BME280;40484;50.198;19.576;2023-06-04T13:20:57;102150.55;;;28.40;21.32
54588;BME280;40484;50.198;19.576;2023-06-04T13:25:59;102158.00;;;28.45;21.77
54588;BME280;40484;50.198;19.576;2023-06-04T13:31:02;102153.50;;;28.57;21.51
54588;BME280;40484;50.198;19.576;2023-06-04T13:36:04;102157.74;;;28.45;21.29
54588;BME280;40484;50.198;19.576;2023-06-04T13:41:06;102143.36;;;28.59;22.04
54588;BME280;40484;50.198;19.576;2023-06-04T13:46:07;102152.08;;;28.79;21.59
54588;BME280;40484;50.198;19.576;2023-06-04T13:51:09;102143.32;;;28.98;21.46
54588;BME280;40484;50.198;19.576;2023-06-04T13:56:10;102145.58;;;28.95;21.11
54588;BME280;40484;50.198;19.576;2023-06-04T14:01:13;102145.29;;;28.74;20.89
54588;BME280;40484;50.198;19.576;2023-06-04T14:06:15;102140.00;;;28.81;20.40
54588;BME280;40484;50.198;19.576;2023-06-04T14:11:42;102126.48;;;29.12;20.33
54588;BME280;40484;50.198;19.576;2023-06-04T14:16:44;102133.01;;;28.79;20.00
54588;BME280;40484;50.198;19.576;2023-06-04T14:21:46;102120.05;;;29.04;20.35
54588;BME280;40484;50.198;19.576;2023-06-04T14:26:47;102115.67;;;29.25;19.31
54588;BME280;40484;50.198;19.576;2023-06-04T14:31:49;102120.15;;;29.47;19.15
54588;BME280;40484;50.198;19.576;2023-06-04T14:36:50;102122.02;;;29.74;19.64
54588;BME280;40484;50.198;19.576;2023-06-04T14:41:52;102118.06;;;29.75;19.58
54588;BME280;40484;50.198;19.576;2023-06-04T14:46:54;102118.74;;;29.82;19.45
54588;BME280;40484;50.198;19.576;2023-06-04T14:51:55;102115.70;;;29.90;19.20
54588;BME280;40484;50.198;19.576;2023-06-04T14:56:57;102113.22;;;29.56;18.39
54588;BME280;40484;50.198;19.576;2023-06-04T15:01:58;102111.45;;;29.57;19.61
54588;BME280;40484;50.198;19.576;2023-06-04T15:07:00;102107.66;;;29.81;19.36
54588;BME280;40484;50.198;19.576;2023-06-04T15:12:02;102101.70;;;29.84;19.03
54588;BME280;40484;50.198;19.576;2023-06-04T15:17:04;102096.25;;;29.82;19.00
54588;BME280;40484;50.198;19.576;2023-06-04T15:22:07;102104.47;;;29.70;19.18
54588;BME280;40484;50.198;19.576;2023-06-04T15:27:08;102097.89;;;29.94;19.27
54588;BME280;40484;50.198;19.576;2023-06-04T15:32:10;102097.72;;;30.10;19.15
54588;BME280;40484;50.198;19.576;2023-06-04T15:37:12;102096.72;;;30.16;19.31
54588;BME280;40484;50.198;19.576;2023-06-04T15:42:14;102098.50;;;29.62;18.82
54588;BME280;40484;50.198;19.576;2023-06-04T15:47:15;102103.60;;;29.74;18.96
54588;BME280;40484;50.198;19.576;2023-06-04T15:52:17;102108.67;;;29.85;18.63
54588;BME280;40484;50.198;19.576;2023-06-04T15:57:46;102107.44;;;30.02;18.61
54588;BME280;40484;50.198;19.576;2023-06-04T16:02:47;102093.70;;;29.96;17.98
54588;BME280;40484;50.198;19.576;2023-06-04T16:07:49;102101.13;;;30.00;18.62
54588;BME280;40484;50.198;19.576;2023-06-04T16:12:51;102100.70;;;30.07;18.38
54588;BME280;40484;50.198;19.576;2023-06-04T16:17:53;102100.57;;;30.09;18.14
54588;BME280;40484;50.198;19.576;2023-06-04T16:22:55;102101.29;;;30.01;18.65
54588;BME280;40484;50.198;19.576;2023-06-04T16:27:56;102095.52;;;30.08;18.61
54588;BME280;40484;50.198;19.576;2023-06-04T16:32:58;102100.87;;;29.83;18.51
54588;BME280;40484;50.198;19.576;2023-06-04T16:38:00;102101.52;;;29.90;18.42
54588;BME280;40484;50.198;19.576;2023-06-04T16:43:01;102104.92;;;29.80;18.72
54588;BME280;40484;50.198;19.576;2023-06-04T16:48:03;102107.50;;;29.62;18.43
54588;BME280;40484;50.198;19.576;2023-06-04T16:53:05;102101.44;;;29.45;18.96
54588;BME280;40484;50.198;19.576;2023-06-04T16:58:07;102110.96;;;29.43;19.01
54588;BME280;40484;50.198;19.576;2023-06-04T17:03:09;102108.94;;;29.52;18.78
54588;BME280;40484;50.198;19.576;2023-06-04T17:08:12;102107.53;;;29.58;18.88
54588;BME280;40484;50.198;19.576;2023-06-04T17:13:13;102112.23;;;29.77;19.02
54588;BME280;40484;50.198;19.576;2023-06-04T17:18:16;102114.55;;;29.70;19.19
54588;BME280;40484;50.198;19.576;2023-06-04T17:23:25;102118.29;;;29.50;19.40
54588;BME280;40484;50.198;19.576;2023-06-04T17:28:27;102128.03;;;29.52;19.57
54588;BME280;40484;50.198;19.576;2023-06-04T17:33:28;102127.45;;;29.43;19.68
54588;BME280;40484;50.198;19.576;2023-06-04T17:38:55;102123.26;;;29.38;20.10
54588;BME280;40484;50.198;19.576;2023-06-04T17:43:56;102124.52;;;28.90;21.13
54588;BME280;40484;50.198;19.576;2023-06-04T17:48:58;102128.14;;;28.55;21.68
54588;BME280;40484;50.198;19.576;2023-06-04T17:54:00;102128.87;;;28.21;22.48
54588;BME280;40484;50.198;19.576;2023-06-04T17:59:05;102129.90;;;27.89;23.10
54588;BME280;40484;50.198;19.576;2023-06-04T18:04:07;102130.79;;;27.55;23.77
54588;BME280;40484;50.198;19.576;2023-06-04T18:09:09;102136.70;;;27.08;24.23
54588;BME280;40484;50.198;19.576;2023-06-04T18:14:10;102136.02;;;26.73;24.81
54588;BME280;40484;50.198;19.576;2023-06-04T18:19:12;102137.68;;;26.51;25.15
54588;BME280;40484;50.198;19.576;2023-06-04T18:24:15;102135.53;;;26.32;25.49
54588;BME280;40484;50.198;19.576;2023-06-04T18:29:17;102135.59;;;26.02;25.76
54588;BME280;40484;50.198;19.576;2023-06-04T18:34:19;102139.82;;;25.52;26.15
54588;BME280;40484;50.198;19.576;2023-06-04T18:39:24;102138.52;;;25.00;26.58
54588;BME280;40484;50.198;19.576;2023-06-04T18:44:30;102150.88;;;24.71;26.70
54588;BME280;40484;50.198;19.576;2023-06-04T18:49:31;102155.73;;;24.61;27.15
54588;BME280;40484;50.198;19.576;2023-06-04T18:54:33;102154.39;;;24.57;27.40
54588;BME280;40484;50.198;19.576;2023-06-04T18:59:35;102155.52;;;24.44;27.69
54588;BME280;40484;50.198;19.576;2023-06-04T19:04:37;102173.82;;;24.19;27.70
54588;BME280;40484;50.198;19.576;2023-06-04T19:09:39;102180.33;;;23.90;27.88
54588;BME280;40484;50.198;19.576;2023-06-04T19:15:08;102183.36;;;23.69;28.18
54588;BME280;40484;50.198;19.576;2023-06-04T19:20:10;102191.91;;;23.48;28.80
54588;BME280;40484;50.198;19.576;2023-06-04T19:25:13;102192.46;;;23.30;28.68
54588;BME280;40484;50.198;19.576;2023-06-04T19:30:15;102197.08;;;23.04;28.92
54588;BME280;40484;50.198;19.576;2023-06-04T19:35:19;102201.05;;;22.90;29.05
54588;BME280;40484;50.198;19.576;2023-06-04T19:40:21;102203.29;;;22.72;29.15
54588;BME280;40484;50.198;19.576;2023-06-04T19:45:25;102205.06;;;22.47;29.70
54588;BME280;40484;50.198;19.576;2023-06-04T19:50:27;102210.06;;;22.19;30.08
54588;BME280;40484;50.198;19.576;2023-06-04T19:55:29;102204.87;;;22.05;30.12
54588;BME280;40484;50.198;19.576;2023-06-04T20:00:32;102212.93;;;21.88;30.45
54588;BME280;40484;50.198;19.576;2023-06-04T20:05:34;102211.23;;;21.70;31.05
54588;BME280;40484;50.198;19.576;2023-06-04T20:10:36;102206.58;;;21.61;31.26
54588;BME280;40484;50.198;19.576;2023-06-04T20:15:38;102214.23;;;21.60;31.52
54588;BME280;40484;50.198;19.576;2023-06-04T20:20:39;102210.70;;;21.57;31.66
54588;BME280;40484;50.198;19.576;2023-06-04T20:25:41;102211.11;;;21.29;31.76
54588;BME280;40484;50.198;19.576;2023-06-04T20:30:43;102214.02;;;21.03;31.85
54588;BME280;40484;50.198;19.576;2023-06-04T20:35:46;102217.27;;;20.79;31.91
54588;BME280;40484;50.198;19.576;2023-06-04T20:40:47;102218.59;;;20.66;32.06
54588;BME280;40484;50.198;19.576;2023-06-04T20:45:49;102211.47;;;20.62;32.33
54588;BME280;40484;50.198;19.576;2023-06-04T20:51:19;102215.80;;;20.57;32.51
54588;BME280;40484;50.198;19.576;2023-06-04T20:56:21;102207.41;;;20.54;32.83
54588;BME280;40484;50.198;19.576;2023-06-04T21:01:24;102214.86;;;20.50;32.93
54588;BME280;40484;50.198;19.576;2023-06-04T21:06:26;102222.73;;;20.59;32.69
54588;BME280;40484;50.198;19.576;2023-06-04T21:11:28;102217.79;;;20.64;32.52
54588;BME280;40484;50.198;19.576;2023-06-04T21:16:29;102209.76;;;20.41;32.62
54588;BME280;40484;50.198;19.576;2023-06-04T21:21:31;102215.09;;;20.14;32.82
54588;BME280;40484;50.198;19.576;2023-06-04T21:26:32;102211.91;;;19.90;33.10
54588;BME280;40484;50.198;19.576;2023-06-04T21:31:34;102220.80;;;19.76;33.30
54588;BME280;40484;50.198;19.576;2023-06-04T21:36:36;102214.20;;;19.78;33.47
54588;BME280;40484;50.198;19.576;2023-06-04T21:41:37;102208.18;;;19.74;33.44
54588;BME280;40484;50.198;19.576;2023-06-04T21:46:39;102223.67;;;19.51;33.62
54588;BME280;40484;50.198;19.576;2023-06-04T21:51:40;102228.62;;;19.30;33.81
54588;BME280;40484;50.198;19.576;2023-06-04T21:56:42;102232.34;;;19.21;33.82
54588;BME280;40484;50.198;19.576;2023-06-04T22:01:46;102231.16;;;19.15;34.06
54588;BME280;40484;50.198;19.576;2023-06-04T22:06:48;102234.17;;;19.09;34.33
54588;BME280;40484;50.198;19.576;2023-06-04T22:11:49;102237.92;;;18.96;34.41
54588;BME280;40484;50.198;19.576;2023-06-04T22:16:51;102235.06;;;18.89;34.49
54588;BME280;40484;50.198;19.576;2023-06-04T22:21:53;102243.61;;;18.78;34.64
54588;BME280;40484;50.198;19.576;2023-06-04T22:26:55;102245.38;;;18.50;34.67
54588;BME280;40484;50.198;19.576;2023-06-04T22:31:56;102248.71;;;18.29;34.93
54588;BME280;40484;50.198;19.576;2023-06-04T22:37:23;102247.59;;;18.38;34.70
54588;BME280;40484;50.198;19.576;2023-06-04T22:42:24;102242.70;;;18.42;34.76
54588;BME280;40484;50.198;19.576;2023-06-04T22:47:26;102236.24;;;18.37;34.69
54588;BME280;40484;50.198;19.576;2023-06-04T22:52:27;102237.15;;;18.28;34.55
54588;BME280;40484;50.198;19.576;2023-06-04T22:57:29;102241.84;;;18.22;34.69
54588;BME280;40484;50.198;19.576;2023-06-04T23:02:31;102240.10;;;18.28;34.61
54588;BME280;40484;50.198;19.576;2023-06-04T23:07:33;102247.62;;;18.35;34.54
54588;BME280;40484;50.198;19.576;2023-06-04T23:12:34;102254.56;;;18.35;34.69
54588;BME280;40484;50.198;19.576;2023-06-04T23:17:36;102251.92;;;18.23;34.69
54588;BME280;40484;50.198;19.576;2023-06-04T23:22:38;102250.35;;;18.15;34.80
54588;BME280;40484;50.198;19.576;2023-06-04T23:27:39;102242.79;;;18.10;34.79
54588;BME280;40484;50.198;19.576;2023-06-04T23:32:41;102237.58;;;18.04;34.94
54588;BME280;40484;50.198;19.576;2023-06-04T23:37:42;102241.84;;;17.98;35.09
54588;BME280;40484;50.198;19.576;2023-06-04T23:42:44;102243.34;;;17.93;35.03
54588;BME280;40484;50.198;19.576;2023-06-04T23:47:45;102245.94;;;17.83;35.14
54588;BME280;40484;50.198;19.576;2023-06-04T23:52:47;102244.94;;;17.75;35.29
54588;BME280;40484;50.198;19.576;2023-06-04T23:57:49;102241.20;;;17.69;35.36
